Time;durP1;ratioP1;P1;durP2;ratioP2;P2;SDS_P1;SDS_P2;PMS_P1;PMS_P2;Temp;Humidity;BMP_temperature;BMP_pressure;BME280_temperature;BME280_humidity;BME280_pressure;Samples;Min_cycle;Max_cycle;Signal;HPM_P1;HPM_P2
2021/12/25 00:15:54;;;;;;;9.40;9.10;;;7.30;99.90;;;;;;4853513;29;20226;-83
2021/12/25 01:52:50;;;;;;;9.53;9.23;;;7.30;99.90;;;;;;4844874;29;20226;-83
2021/12/25 03:10:55;;;;;;;;;;;;;;;;;;;;;
2021/12/25 03:21:02;;;;;;;9.80;9.50;;;7.20;99.90;;;;;;5087901;22;20233;-87
2021/12/25 03:23:34;;;;;;;9.80;9.50;;;7.10;99.90;;;;;;5099893;28;20225;-88
2021/12/25 03:26:04;;;;;;;9.73;9.43;;;7.10;99.90;;;;;;5101013;28;20325;-88
2021/12/25 03:28:38;;;;;;;9.60;9.30;;;7.00;99.90;;;;;;5100819;28;20272;-88
2021/12/25 03:31:14;;;;;;;9.60;9.30;;;7.10;99.90;;;;;;5100195;28;21037;-88
2021/12/25 03:33:44;;;;;;;9.60;9.30;;;7.10;99.90;;;;;;5100464;28;20225;-88
2021/12/25 03:36:31;;;;;;;9.80;9.50;;;7.10;99.90;;;;;;5100655;28;20214;-89
2021/12/25 03:39:01;;;;;;;9.70;9.40;;;7.10;99.90;;;;;;5102097;28;20236;-87
2021/12/25 03:41:30;;;;;;;9.70;9.40;;;7.20;99.90;;;;;;5102121;28;20232;-88
2021/12/25 03:44:00;;;;;;;9.63;9.33;;;7.20;99.90;;;;;;5118291;27;20256;-88
2021/12/25 03:46:30;;;;;;;9.57;9.27;;;7.20;99.90;;;;;;5108067;28;20253;-89
2021/12/25 03:49:05;;;;;;;9.37;9.07;;;7.20;99.90;;;;;;5071801;28;20223;-89
2021/12/25 04:02:50;;;;;;;9.60;9.30;;;7.20;99.90;;;;;;5059528;28;20233;-89
2021/12/25 04:05:20;;;;;;;9.70;9.40;;;7.20;99.90;;;;;;5059194;28;20273;-88
2021/12/25 04:08:05;;;;;;;9.90;9.60;;;7.20;99.90;;;;;;5059602;28;20654;-89
2021/12/25 04:10:37;;;;;;;9.80;9.50;;;7.20;99.90;;;;;;5059460;28;20265;-88
2021/12/25 04:13:10;;;;;;;9.67;9.37;;;7.20;99.90;;;;;;5059900;28;20247;-88
2021/12/25 04:15:38;;;;;;;9.87;9.57;;;7.00;99.90;;;;;;5059660;28;20231;-87
2021/12/25 04:18:07;;;;;;;9.80;9.50;;;7.00;99.90;;;;;;5058694;28;20230;-87
2021/12/25 04:20:36;;;;;;;9.73;9.43;;;7.00;99.90;;;;;;5058539;28;20242;-88
2021/12/25 04:23:10;;;;;;;9.80;9.50;;;7.00;99.90;;;;;;5059192;28;20233;-87
2021/12/25 04:25:38;;;;;;;9.80;9.50;;;7.00;99.90;;;;;;5059358;28;20226;-87
2021/12/25 04:28:15;;;;;;;9.90;9.60;;;7.00;99.90;;;;;;5059187;28;20235;-87
2021/12/25 04:31:03;;;;;;;9.70;9.40;;;7.00;99.90;;;;;;5059344;28;20239;-88
2021/12/25 05:04:29;;;;;;;9.70;9.40;;;7.00;99.90;;;;;;5057444;28;20314;-86
2021/12/25 05:06:57;;;;;;;9.70;9.40;;;7.00;99.90;;;;;;5058688;28;20300;-87
2021/12/25 05:09:26;;;;;;;9.60;9.30;;;7.00;99.90;;;;;;5067815;28;20242;-87
2021/12/25 05:11:57;;;;;;;9.70;9.40;;;7.00;99.90;;;;;;5078566;28;20237;-87
2021/12/25 05:14:25;;;;;;;9.43;9.13;;;7.00;99.90;;;;;;5076709;28;20245;-87
2021/12/25 05:16:55;;;;;;;9.50;9.20;;;7.00;99.90;;;;;;5078361;28;20291;-87
2021/12/25 05:19:41;;;;;;;9.60;9.30;;;7.00;99.90;;;;;;5077472;28;20267;-87
2021/12/25 05:22:14;;;;;;;9.50;9.20;;;7.00;99.90;;;;;;5078507;28;20317;-86
2021/12/25 05:24:41;;;;;;;9.63;9.33;;;7.00;99.90;;;;;;5077790;28;20230;-86
2021/12/25 05:27:22;;;;;;;9.70;9.40;;;7.00;99.90;;;;;;5077606;28;20234;-87
2021/12/25 05:29:50;;;;;;;9.60;9.30;;;7.00;99.90;;;;;;5077885;28;20275;-87
2021/12/25 05:32:19;;;;;;;9.60;9.30;;;7.00;99.90;;;;;;5077671;28;20230;-87
2021/12/25 05:34:47;;;;;;;9.53;9.23;;;7.00;99.90;;;;;;5077825;28;20222;-89
2021/12/25 05:37:15;;;;;;;9.50;9.20;;;7.00;99.90;;;;;;5079496;28;20253;-82
2021/12/25 05:39:50;;;;;;;9.40;9.10;;;6.90;99.90;;;;;;5079571;28;20237;-83
2021/12/25 05:42:25;;;;;;;9.70;9.40;;;6.90;99.90;;;;;;5088021;27;20225;-88
2021/12/25 05:44:53;;;;;;;9.63;9.33;;;6.90;99.90;;;;;;5090585;27;20226;-87
2021/12/25 05:47:24;;;;;;;9.70;9.40;;;6.90;99.90;;;;;;5080552;28;20229;-88
2021/12/25 05:49:54;;;;;;;9.53;9.23;;;6.90;99.90;;;;;;5084885;27;20225;-88
2021/12/25 05:52:23;;;;;;;9.50;9.20;;;6.90;99.90;;;;;;5100848;27;20290;-86
2021/12/25 05:54:52;;;;;;;9.60;9.30;;;6.90;99.90;;;;;;5100519;27;20234;-86
2021/12/25 05:57:31;;;;;;;9.63;9.33;;;6.90;99.90;;;;;;5099893;27;20284;-89
2021/12/25 06:00:00;;;;;;;9.60;9.30;;;6.80;99.90;;;;;;5091966;28;20238;-86
2021/12/25 06:02:29;;;;;;;9.43;9.13;;;6.90;99.90;;;;;;5081605;28;20230;-86
2021/12/25 06:05:00;;;;;;;9.50;9.20;;;6.80;99.90;;;;;;5081877;28;20225;-87
2021/12/25 06:07:29;;;;;;;9.67;9.37;;;6.80;99.90;;;;;;5083285;28;20230;-88
2021/12/25 06:09:58;;;;;;;9.80;9.50;;;6.80;99.90;;;;;;5082424;28;20235;-88
2021/12/25 06:12:37;;;;;;;9.67;9.37;;;6.80;99.90;;;;;;5089570;27;20252;-89
2021/12/25 06:15:06;;;;;;;9.50;9.20;;;6.80;99.90;;;;;;5101269;27;20256;-88
2021/12/25 06:17:35;;;;;;;9.60;9.30;;;6.90;99.90;;;;;;5100279;28;20214;-88
2021/12/25 06:20:04;;;;;;;9.40;9.10;;;6.90;99.90;;;;;;5088778;27;20234;-87
2021/12/25 06:22:34;;;;;;;9.43;9.13;;;7.00;99.90;;;;;;5081382;28;20292;-87
2021/12/25 06:25:03;;;;;;;9.23;8.93;;;7.00;99.90;;;;;;5081461;28;20284;-87
2021/12/25 06:27:40;;;;;;;9.40;9.10;;;7.00;99.90;;;;;;5080956;28;20257;-88
2021/12/25 06:30:13;;;;;;;9.30;9.00;;;7.00;99.90;;;;;;5081253;28;20264;-89
2021/12/25 06:32:41;;;;;;;9.47;9.17;;;7.00;99.90;;;;;;5081346;28;20236;-88
2021/12/25 06:35:12;;;;;;;9.37;9.07;;;7.00;99.90;;;;;;5080695;28;20272;-88
2021/12/25 06:37:44;;;;;;;9.50;9.20;;;7.10;99.90;;;;;;5099952;28;20234;-86
2021/12/25 06:40:18;;;;;;;9.60;9.30;;;7.00;99.90;;;;;;5098824;28;20238;-87
2021/12/25 06:42:50;;;;;;;9.40;9.10;;;7.10;99.90;;;;;;5089257;28;20256;-88
2021/12/25 06:45:18;;;;;;;9.50;9.20;;;7.00;99.90;;;;;;5080937;28;20253;-87
2021/12/25 06:47:46;;;;;;;9.40;9.10;;;7.00;99.90;;;;;;5081045;28;20260;-88
2021/12/25 06:50:15;;;;;;;9.40;9.10;;;7.00;99.90;;;;;;5081433;28;20237;-88
2021/12/25 06:52:45;;;;;;;9.40;9.10;;;7.00;99.90;;;;;;5080803;28;20264;-87
2021/12/25 06:55:14;;;;;;;9.50;9.20;;;7.10;99.90;;;;;;5080905;28;20222;-88
2021/12/25 06:57:48;;;;;;;9.50;9.20;;;7.00;99.90;;;;;;5080983;28;20237;-88
2021/12/25 07:00:22;;;;;;;9.47;9.17;;;7.00;99.90;;;;;;5080617;28;20244;-88
2021/12/25 07:02:52;;;;;;;9.60;9.30;;;7.10;99.90;;;;;;5080259;28;20233;-88
2021/12/25 07:05:27;;;;;;;9.70;9.40;;;7.00;99.90;;;;;;5080008;28;20227;-87
2021/12/25 07:07:55;;;;;;;9.80;9.50;;;7.00;99.90;;;;;;5079759;28;20245;-87
2021/12/25 07:10:25;;;;;;;9.67;9.37;;;7.00;99.90;;;;;;5081832;28;20295;-88
2021/12/25 07:12:56;;;;;;;10.00;9.70;;;7.00;99.90;;;;;;5080170;28;20226;-86
2021/12/25 07:15:26;;;;;;;9.77;9.47;;;6.90;99.90;;;;;;5079474;28;20265;-87
2021/12/25 07:17:54;;;;;;;9.80;9.50;;;6.80;99.90;;;;;;5079480;28;20230;-87
2021/12/25 07:20:23;;;;;;;9.80;9.50;;;6.90;99.90;;;;;;5078944;28;20262;-87
2021/12/25 07:23:05;;;;;;;9.70;9.40;;;6.90;99.90;;;;;;5079844;28;20290;-87
2021/12/25 07:25:35;;;;;;;9.70;9.40;;;6.90;99.90;;;;;;5079610;28;20236;-88
2021/12/25 07:28:06;;;;;;;9.70;9.40;;;7.00;99.90;;;;;;5082991;28;20281;-88
2021/12/25 07:33:27;;;;;;;9.60;9.30;;;6.70;99.90;;;;;;5080484;28;20221;-87
2021/12/25 07:35:58;;;;;;;9.50;9.20;;;6.60;99.90;;;;;;5080353;28;20287;-86
2021/12/25 07:38:27;;;;;;;9.70;9.40;;;6.60;99.90;;;;;;5080808;28;20268;-86
2021/12/25 07:40:58;;;;;;;9.80;9.50;;;6.50;99.90;;;;;;5080305;28;20238;-85
2021/12/25 07:43:28;;;;;;;9.77;9.47;;;6.40;99.90;;;;;;5086283;28;20226;-87
2021/12/25 07:45:59;;;;;;;9.90;9.60;;;6.20;99.90;;;;;;5085767;28;20231;-87
2021/12/25 07:48:27;;;;;;;9.63;9.33;;;6.20;99.90;;;;;;5081564;28;20233;-85
2021/12/25 07:50:57;;;;;;;9.60;9.30;;;6.20;99.90;;;;;;5081279;28;20265;-86
2021/12/25 07:53:26;;;;;;;9.70;9.40;;;6.00;99.90;;;;;;5079953;28;20281;-86
2021/12/25 07:55:55;;;;;;;9.67;9.37;;;6.00;99.90;;;;;;5081001;28;20233;-86
2021/12/25 07:58:30;;;;;;;9.60;9.30;;;5.80;99.90;;;;;;5080379;28;20397;-87
2021/12/25 08:01:05;;;;;;;9.93;9.63;;;5.70;99.90;;;;;;5080718;28;20308;-87
2021/12/25 08:03:33;;;;;;;10.00;9.70;;;5.60;99.90;;;;;;5080836;28;20229;-87
2021/12/25 08:06:04;;;;;;;9.90;9.60;;;5.60;99.90;;;;;;5080060;28;20245;-87
2021/12/25 08:08:32;;;;;;;9.80;9.50;;;5.50;99.90;;;;;;5079643;28;20248;-87
2021/12/25 08:11:00;;;;;;;10.10;9.80;;;5.40;99.90;;;;;;5079128;28;20264;-88
2021/12/25 08:13:30;;;;;;;9.90;9.60;;;5.40;99.90;;;;;;5078889;28;20221;-86
2021/12/25 08:18:50;;;;;;;10.10;9.80;;;5.10;99.90;;;;;;5079199;28;20226;-86
2021/12/25 08:21:18;;;;;;;10.10;9.80;;;4.90;99.90;;;;;;5079488;28;20242;-86
2021/12/25 08:23:47;;;;;;;10.20;9.90;;;4.90;99.90;;;;;;5081050;28;20230;-85
2021/12/25 08:26:15;;;;;;;10.17;9.87;;;4.80;99.90;;;;;;5080896;28;20253;-86
2021/12/25 08:28:43;;;;;;;10.17;9.87;;;4.70;99.90;;;;;;5080070;28;20234;-85
2021/12/25 08:31:12;;;;;;;9.87;9.57;;;4.70;99.90;;;;;;5079860;28;20238;-85
2021/12/25 08:33:41;;;;;;;10.30;10.00;;;4.70;99.90;;;;;;5079023;28;20230;-85
2021/12/25 08:36:09;;;;;;;10.30;10.00;;;4.70;99.90;;;;;;5091213;27;20245;-86
2021/12/25 08:38:37;;;;;;;10.13;9.83;;;4.60;99.90;;;;;;5081282;28;20225;-87
2021/12/25 08:41:05;;;;;;;10.13;9.83;;;4.70;99.90;;;;;;5080410;28;20242;-85
2021/12/25 08:43:45;;;;;;;9.90;9.60;;;4.70;99.90;;;;;;5080221;28;20226;-85
2021/12/25 08:46:35;;;;;;;10.20;9.90;;;4.70;99.90;;;;;;5080333;28;20218;-85
2021/12/25 08:49:02;;;;;;;10.10;9.80;;;4.60;99.90;;;;;;5080430;28;20226;-86
2021/12/25 08:51:32;;;;;;;10.20;9.90;;;4.60;99.90;;;;;;5079811;28;20728;-85
2021/12/25 08:54:00;;;;;;;10.03;9.73;;;4.60;99.90;;;;;;5080563;28;20238;-85
2021/12/25 08:56:29;;;;;;;10.10;9.80;;;4.50;99.90;;;;;;5081025;28;20226;-85
2021/12/25 08:59:00;;;;;;;10.10;9.80;;;4.50;99.90;;;;;;5081897;28;20614;-84
2021/12/25 09:01:29;;;;;;;10.47;10.17;;;4.40;99.90;;;;;;5081939;28;20265;-84
2021/12/25 09:03:59;;;;;;;10.20;9.90;;;4.50;99.90;;;;;;5081511;28;20226;-85
2021/12/25 09:06:27;;;;;;;10.20;9.90;;;4.50;99.90;;;;;;5080510;28;20237;-84
2021/12/25 09:08:55;;;;;;;10.27;9.97;;;4.40;99.90;;;;;;5080055;28;20237;-87
2021/12/25 09:11:24;;;;;;;10.10;9.80;;;4.30;99.90;;;;;;5080568;28;20294;-86
2021/12/25 09:13:53;;;;;;;10.03;9.73;;;4.30;99.90;;;;;;5079816;28;20297;-86
2021/12/25 09:16:21;;;;;;;10.30;10.00;;;4.20;99.90;;;;;;5093597;27;20217;-90
2021/12/25 09:18:52;;;;;;;10.20;9.90;;;4.20;99.90;;;;;;5090523;27;20222;-87
2021/12/25 09:21:20;;;;;;;10.30;10.00;;;4.20;99.90;;;;;;5079782;28;20249;-87
2021/12/25 09:23:49;;;;;;;10.70;10.40;;;4.20;99.90;;;;;;5079128;28;20234;-88
2021/12/25 09:26:20;;;;;;;10.50;10.20;;;4.20;99.90;;;;;;5110110;22;20265;-87
2021/12/25 09:28:54;;;;;;;10.50;10.20;;;4.30;99.90;;;;;;5080734;28;20232;-86
2021/12/25 09:31:29;;;;;;;10.30;10.00;;;4.40;99.90;;;;;;5083505;28;20290;-85
2021/12/25 09:34:01;;;;;;;10.53;10.23;;;4.40;99.90;;;;;;5083958;28;20287;-84
2021/12/25 09:36:34;;;;;;;10.20;9.90;;;4.40;99.90;;;;;;5083817;28;20238;-85
2021/12/25 09:39:05;;;;;;;10.00;9.70;;;4.50;99.90;;;;;;5085566;28;20230;-84
2021/12/25 09:41:34;;;;;;;10.10;9.80;;;4.50;99.90;;;;;;5082670;28;20238;-86
2021/12/25 09:44:09;;;;;;;9.87;9.57;;;4.50;99.90;;;;;;5076158;28;20241;-85
2021/12/25 09:46:52;;;;;;;9.90;9.60;;;4.40;99.90;;;;;;5061629;28;20240;-86
2021/12/25 09:50:07;;;;;;;9.83;9.53;;;4.40;99.90;;;;;;5063550;28;20675;-86
2021/12/25 09:56:19;;;;;;;;;;;;;;;;;;;;;
2021/12/25 10:02:17;;;;;;;9.90;9.60;;;4.40;99.90;;;;;;5082491;28;20238;-86
2021/12/25 10:21:30;;;;;;;9.30;9.00;;;5.10;99.90;;;;;;5094940;27;20245;-84
2021/12/25 10:24:16;;;;;;;9.43;9.13;;;5.20;99.90;;;;;;5082019;28;20238;-88
2021/12/25 10:26:49;;;;;;;10.07;9.77;;;4.90;99.90;;;;;;5060895;28;20238;-82
2021/12/25 10:29:26;;;;;;;10.00;9.70;;;4.50;99.90;;;;;;5060690;28;20266;-83
2021/12/25 10:32:23;;;;;;;10.13;9.83;;;4.30;99.90;;;;;;5060758;28;20222;-80
2021/12/25 10:35:16;;;;;;;10.20;9.90;;;4.30;99.90;;;;;;5081595;28;20234;-82
2021/12/25 10:37:48;;;;;;;10.40;10.10;;;4.10;99.90;;;;;;5083115;28;20257;-81
2021/12/25 10:41:09;;;;;;;10.17;9.87;;;4.10;99.90;;;;;;5083926;28;20288;-81
2021/12/25 10:44:17;;;;;;;10.20;9.90;;;4.00;99.90;;;;;;5083844;28;20230;-81
2021/12/25 10:47:00;;;;;;;10.50;10.20;;;3.90;99.90;;;;;;5082914;28;20241;-80
2021/12/25 10:49:33;;;;;;;10.47;10.17;;;4.00;99.90;;;;;;5085079;28;20222;-80
2021/12/25 10:52:19;;;;;;;10.60;10.30;;;3.90;99.90;;;;;;5084010;28;20230;-79
2021/12/25 10:54:53;;;;;;;10.37;10.07;;;3.80;99.90;;;;;;5084637;28;20318;-78
2021/12/25 10:57:38;;;;;;;10.30;10.00;;;3.80;99.90;;;;;;5083580;28;20229;-80
2021/12/25 11:00:15;;;;;;;10.37;10.07;;;3.80;99.90;;;;;;5082381;28;20237;-79
2021/12/25 11:02:52;;;;;;;10.40;10.10;;;3.70;99.90;;;;;;5083254;28;20234;-79
2021/12/25 11:05:24;;;;;;;10.00;9.70;;;3.70;99.90;;;;;;5082996;28;20230;-79
2021/12/25 11:08:13;;;;;;;10.17;9.87;;;3.70;99.90;;;;;;5084791;28;20240;-80
2021/12/25 11:10:51;;;;;;;10.50;10.20;;;3.60;99.90;;;;;;5084078;28;20234;-80
2021/12/25 11:13:35;;;;;;;10.50;10.20;;;3.60;99.90;;;;;;5082740;28;20226;-80
2021/12/25 11:16:22;;;;;;;10.50;10.20;;;3.60;99.90;;;;;;5082899;28;20237;-79
2021/12/25 11:19:03;;;;;;;10.83;10.53;;;3.60;99.90;;;;;;5082855;28;20229;-78
2021/12/25 11:21:38;;;;;;;10.60;10.30;;;3.60;99.90;;;;;;5083133;28;20237;-78
2021/12/25 11:24:48;;;;;;;10.47;10.17;;;3.70;99.90;;;;;;5082986;28;20257;-80
2021/12/25 11:27:16;;;;;;;10.50;10.20;;;3.60;99.90;;;;;;5083358;28;20238;-78
2021/12/25 11:29:46;;;;;;;10.30;10.00;;;3.60;99.90;;;;;;5083698;28;20235;-79
2021/12/25 11:32:21;;;;;;;10.30;10.00;;;3.60;99.90;;;;;;5066311;28;20592;-81
2021/12/25 11:34:51;;;;;;;10.57;10.27;;;3.50;99.90;;;;;;5065187;28;20218;-81
2021/12/25 11:37:20;;;;;;;10.10;9.80;;;3.60;99.90;;;;;;5063756;28;20235;-79
2021/12/25 11:39:53;;;;;;;10.13;9.83;;;3.60;99.90;;;;;;5074773;28;20230;-83
2021/12/25 11:42:23;;;;;;;10.13;9.83;;;3.80;99.90;;;;;;5080649;28;20262;-81
2021/12/25 11:44:55;;;;;;;10.23;9.93;;;3.90;99.90;;;;;;5085037;28;20226;-81
2021/12/25 11:47:38;;;;;;;10.47;10.17;;;3.70;99.90;;;;;;5085579;28;20226;-81
2021/12/25 11:50:09;;;;;;;10.50;10.20;;;3.60;99.90;;;;;;5084209;28;20236;-81
2021/12/25 11:52:45;;;;;;;10.73;10.43;;;3.50;99.90;;;;;;5084665;28;20274;-81
2021/12/25 11:55:46;;;;;;;10.73;10.43;;;3.50;99.90;;;;;;5084962;28;20225;-81
2021/12/25 11:58:39;;;;;;;10.57;10.27;;;3.30;99.90;;;;;;5084669;28;20222;-80
2021/12/25 12:01:41;;;;;;;10.70;10.40;;;3.20;99.90;;;;;;5084644;28;20261;-81
2021/12/25 12:04:18;;;;;;;10.60;10.30;;;3.10;99.90;;;;;;5076576;28;20239;-79
2021/12/25 12:07:06;;;;;;;10.70;10.40;;;3.10;99.90;;;;;;5063280;28;20227;-79
2021/12/25 12:09:51;;;;;;;10.60;10.30;;;3.00;99.90;;;;;;5073962;28;20230;-80
2021/12/25 12:12:24;;;;;;;10.63;10.33;;;3.00;99.90;;;;;;5066284;28;20230;-80
2021/12/25 12:15:15;;;;;;;10.60;10.30;;;3.00;99.90;;;;;;5066127;28;20269;-80
2021/12/25 12:17:47;;;;;;;10.50;10.20;;;3.00;99.90;;;;;;5064052;28;20238;-80
2021/12/25 12:20:38;;;;;;;10.30;10.00;;;3.00;99.90;;;;;;5082300;28;20249;-80
2021/12/25 12:23:36;;;;;;;10.50;10.20;;;2.90;99.90;;;;;;5064471;28;20241;-80
2021/12/25 12:26:07;;;;;;;10.53;10.23;;;3.00;99.90;;;;;;5062260;28;20321;-78
2021/12/25 12:28:52;;;;;;;10.20;9.90;;;3.10;99.90;;;;;;5060910;28;20277;-78
2021/12/25 12:31:41;;;;;;;10.47;10.17;;;3.00;99.90;;;;;;5061869;28;20230;-80
2021/12/25 12:34:36;;;;;;;10.40;10.10;;;3.10;99.90;;;;;;5062261;28;20234;-80
2021/12/25 12:37:31;;;;;;;10.10;9.80;;;3.10;99.90;;;;;;5058403;28;20261;-80
2021/12/25 12:40:35;;;;;;;10.40;10.10;;;3.10;99.90;;;;;;5060581;28;20270;-80
2021/12/25 12:43:03;;;;;;;10.40;10.10;;;3.10;99.90;;;;;;5060813;28;20300;-80
2021/12/25 12:45:36;;;;;;;10.33;10.03;;;3.20;99.90;;;;;;5060123;28;20235;-78
2021/12/25 12:48:19;;;;;;;10.27;9.97;;;3.20;99.90;;;;;;5060907;28;20227;-79
2021/12/25 12:50:53;;;;;;;9.40;9.10;;;3.20;99.90;;;;;;5063481;28;20230;-83
2021/12/25 12:53:23;;;;;;;9.10;8.80;;;4.00;99.90;;;;;;5068339;28;20214;-82
2021/12/25 12:55:54;;;;;;;9.13;8.83;;;4.60;99.90;;;;;;5068985;28;20226;-78
2021/12/25 12:58:25;;;;;;;9.30;9.00;;;4.70;99.90;;;;;;5073144;28;20261;-80
2021/12/25 13:00:56;;;;;;;9.20;8.90;;;4.50;99.90;;;;;;5070718;28;20230;-78
2021/12/25 13:03:25;;;;;;;9.37;9.07;;;4.30;99.90;;;;;;5079783;28;20245;-79
2021/12/25 13:06:02;;;;;;;9.30;9.00;;;3.80;99.90;;;;;;5080484;28;20234;-79
2021/12/25 13:08:33;;;;;;;9.40;9.10;;;3.60;99.90;;;;;;5080704;28;20229;-79
2021/12/25 13:11:10;;;;;;;9.40;9.10;;;3.50;99.90;;;;;;5080463;28;20203;-77
2021/12/25 13:13:47;;;;;;;9.43;9.13;;;3.60;99.90;;;;;;5088427;27;20218;-80
2021/12/25 13:16:17;;;;;;;9.47;9.17;;;3.80;99.90;;;;;;5080249;28;20245;-80
2021/12/25 13:18:48;;;;;;;9.60;9.30;;;4.00;99.90;;;;;;5080601;28;20219;-80
2021/12/25 13:21:22;;;;;;;9.90;9.60;;;4.00;99.90;;;;;;5080643;28;20219;-78
2021/12/25 13:23:54;;;;;;;9.83;9.53;;;3.60;99.90;;;;;;5079739;28;20211;-78
2021/12/25 13:26:26;;;;;;;10.20;9.90;;;3.30;99.90;;;;;;5079085;28;20222;-78
2021/12/25 13:28:54;;;;;;;9.97;9.67;;;3.20;99.90;;;;;;5075715;28;20236;-80
2021/12/25 13:31:25;;;;;;;10.07;9.77;;;3.20;99.90;;;;;;5075562;28;20223;-79
2021/12/25 13:33:56;;;;;;;10.07;9.77;;;3.10;99.90;;;;;;5082471;28;20219;-79
2021/12/25 13:36:30;;;;;;;10.30;10.00;;;3.20;99.90;;;;;;5070394;28;20239;-80
2021/12/25 13:39:02;;;;;;;10.03;9.73;;;3.20;99.90;;;;;;5066234;28;20231;-79
2021/12/25 13:41:34;;;;;;;10.27;9.97;;;3.10;99.90;;;;;;5067036;28;20257;-79
2021/12/25 13:44:15;;;;;;;10.27;9.97;;;3.10;99.90;;;;;;5063297;28;20667;-80
2021/12/25 13:46:48;;;;;;;10.10;9.80;;;3.10;99.90;;;;;;5063667;28;20238;-80
2021/12/25 13:49:37;;;;;;;10.27;9.97;;;3.00;99.90;;;;;;5062974;28;20234;-79
2021/12/25 13:52:10;;;;;;;10.00;9.70;;;2.90;99.90;;;;;;5071949;28;20219;-78
2021/12/25 13:54:41;;;;;;;10.00;9.70;;;2.70;99.90;;;;;;5082075;28;20272;-78
2021/12/25 13:57:10;;;;;;;10.30;10.00;;;2.70;99.90;;;;;;5084876;28;20241;-79
2021/12/25 13:59:39;;;;;;;10.20;9.90;;;2.60;99.90;;;;;;5082975;28;20305;-79
2021/12/25 14:02:09;;;;;;;10.00;9.70;;;2.50;99.90;;;;;;5080457;28;20244;-79
2021/12/25 14:04:42;;;;;;;10.10;9.80;;;2.40;99.90;;;;;;5080559;28;20230;-79
2021/12/25 14:07:14;;;;;;;10.23;9.93;;;2.50;99.90;;;;;;5079844;28;20246;-77
2021/12/25 14:09:58;;;;;;;10.00;9.70;;;2.60;99.90;;;;;;5070756;28;20236;-78
2021/12/25 14:12:28;;;;;;;9.80;9.50;;;2.50;99.90;;;;;;5080488;28;20229;-78
2021/12/25 14:14:56;;;;;;;10.30;10.00;;;2.60;99.90;;;;;;5082673;28;20233;-78
2021/12/25 14:17:25;;;;;;;10.00;9.70;;;2.60;99.90;;;;;;5081942;28;20257;-77
2021/12/25 14:20:12;;;;;;;10.30;10.00;;;2.60;99.90;;;;;;5081715;28;20304;-77
2021/12/25 14:22:41;;;;;;;10.00;9.70;;;2.60;99.90;;;;;;5080742;28;20234;-77
2021/12/25 14:25:20;;;;;;;10.13;9.83;;;2.70;99.90;;;;;;5081913;28;20225;-78
2021/12/25 14:28:05;;;;;;;10.00;9.70;;;2.70;99.90;;;;;;5083758;28;20230;-79
2021/12/25 14:30:35;;;;;;;10.07;9.77;;;2.80;99.90;;;;;;5084711;28;20233;-79
2021/12/25 14:33:03;;;;;;;10.10;9.80;;;2.70;99.90;;;;;;5083670;28;20226;-79
2021/12/25 14:35:31;;;;;;;10.47;10.17;;;2.70;99.90;;;;;;5082494;28;20230;-77
2021/12/25 14:38:01;;;;;;;10.40;10.10;;;2.70;99.90;;;;;;5082730;28;20269;-78
2021/12/25 14:40:35;;;;;;;10.30;10.00;;;2.70;99.90;;;;;;5082383;28;20233;-77
2021/12/25 14:43:06;;;;;;;10.20;9.90;;;2.60;99.90;;;;;;5082143;28;20265;-78
2021/12/25 14:45:43;;;;;;;10.37;10.07;;;2.50;99.90;;;;;;5088423;28;20214;-77
2021/12/25 14:48:11;;;;;;;10.27;9.97;;;2.40;99.90;;;;;;5085150;28;20230;-77
2021/12/25 14:50:41;;;;;;;10.13;9.83;;;2.40;99.90;;;;;;5084030;28;20304;-77
2021/12/25 14:53:14;;;;;;;10.50;10.20;;;2.20;99.90;;;;;;5081668;28;20249;-78
2021/12/25 14:55:46;;;;;;;10.50;10.20;;;2.10;99.90;;;;;;5081207;28;20218;-76
2021/12/25 14:58:19;;;;;;;10.50;10.20;;;2.00;99.90;;;;;;5084112;28;20230;-77
2021/12/25 15:00:49;;;;;;;10.30;10.00;;;1.90;99.90;;;;;;5086931;28;20237;-78
2021/12/25 15:03:23;;;;;;;10.63;10.33;;;1.90;99.90;;;;;;5089321;28;20235;-78
2021/12/25 15:05:55;;;;;;;10.70;10.40;;;1.90;99.90;;;;;;5086454;28;20234;-77
2021/12/25 15:08:34;;;;;;;11.00;10.60;;;1.80;99.90;;;;;;5084650;28;20230;-77
2021/12/25 15:11:19;;;;;;;10.77;10.47;;;1.80;99.90;;;;;;5083101;28;20264;-77
2021/12/25 15:14:01;;;;;;;10.80;10.50;;;1.70;99.90;;;;;;5082814;28;20288;-77
2021/12/25 15:16:38;;;;;;;10.00;9.70;;;1.80;99.90;;;;;;5086958;28;20253;-78
2021/12/25 15:19:07;;;;;;;9.70;9.40;;;1.80;99.90;;;;;;5088103;28;20283;-78
2021/12/25 15:21:46;;;;;;;10.10;9.80;;;1.70;99.90;;;;;;5084031;28;20288;-77
2021/12/25 15:24:19;;;;;;;10.30;10.00;;;1.70;99.90;;;;;;5077623;28;20241;-77
2021/12/25 15:26:50;;;;;;;9.93;9.63;;;1.70;99.90;;;;;;5082659;28;20260;-79
2021/12/25 15:29:18;;;;;;;9.63;9.33;;;1.70;99.90;;;;;;5082289;28;20311;-78
2021/12/25 15:31:47;;;;;;;10.00;9.70;;;1.60;99.90;;;;;;5070036;28;20241;-78
2021/12/25 15:34:18;;;;;;;10.10;9.80;;;1.60;99.90;;;;;;5073826;28;20234;-79
2021/12/25 15:39:34;;;;;;;9.87;9.57;;;1.50;99.90;;;;;;5073637;28;20234;-81
2021/12/25 15:42:04;;;;;;;9.90;9.60;;;1.50;99.90;;;;;;5088746;28;20226;-82
2021/12/25 15:44:32;;;;;;;9.87;9.57;;;1.50;99.90;;;;;;5088567;28;20226;-82
2021/12/25 15:47:00;;;;;;;10.10;9.80;;;1.40;99.90;;;;;;5088098;28;20225;-82
2021/12/25 15:49:29;;;;;;;10.00;9.70;;;1.40;99.90;;;;;;5073198;28;20231;-82
2021/12/25 15:52:01;;;;;;;10.20;9.90;;;1.40;99.90;;;;;;5070265;28;20226;-81
2021/12/25 15:54:38;;;;;;;10.40;10.10;;;1.20;99.90;;;;;;5068125;28;20242;-82
2021/12/25 15:57:09;;;;;;;10.23;9.93;;;1.20;99.90;;;;;;5067280;28;20235;-82
2021/12/25 15:59:41;;;;;;;10.13;9.83;;;1.10;99.90;;;;;;5065905;28;20257;-82
2021/12/25 16:02:11;;;;;;;10.33;10.03;;;1.10;99.90;;;;;;5064938;28;20285;-82
2021/12/25 16:04:40;;;;;;;10.40;10.10;;;1.10;99.90;;;;;;5064425;28;20242;-82
2021/12/25 16:07:09;;;;;;;10.23;9.93;;;1.10;99.90;;;;;;5064473;28;20222;-81
2021/12/25 16:09:39;;;;;;;10.57;10.27;;;1.10;99.90;;;;;;5064157;28;20281;-81
2021/12/25 16:12:09;;;;;;;10.17;9.87;;;1.10;99.90;;;;;;5063124;28;20235;-81
2021/12/25 16:14:38;;;;;;;10.20;9.90;;;1.10;99.90;;;;;;5064631;28;20229;-81
2021/12/25 16:17:07;;;;;;;10.00;9.70;;;1.10;99.90;;;;;;5076613;28;20241;-81
2021/12/25 16:19:36;;;;;;;10.13;9.83;;;1.10;99.90;;;;;;5071495;28;20242;-81
2021/12/25 16:22:06;;;;;;;10.10;9.80;;;1.10;99.90;;;;;;5071273;28;20244;-81
2021/12/25 16:24:34;;;;;;;10.27;9.97;;;1.00;99.90;;;;;;5069267;28;20238;-82
2021/12/25 16:27:04;;;;;;;10.10;9.80;;;1.00;99.90;;;;;;5069733;28;20227;-81
2021/12/25 16:29:32;;;;;;;10.03;9.73;;;1.00;99.90;;;;;;5068075;28;20235;-81
2021/12/25 16:32:00;;;;;;;10.13;9.83;;;1.00;99.90;;;;;;5067663;28;20258;-81
2021/12/25 16:34:28;;;;;;;10.20;9.90;;;1.00;99.90;;;;;;5067443;28;20238;-81
2021/12/25 16:36:56;;;;;;;10.20;9.90;;;1.00;99.90;;;;;;5067203;28;20222;-82
2021/12/25 16:39:24;;;;;;;10.27;9.97;;;1.00;99.90;;;;;;5067036;28;20230;-82
2021/12/25 16:41:53;;;;;;;10.20;9.90;;;1.00;99.90;;;;;;5069412;28;20227;-82
2021/12/25 16:44:23;;;;;;;10.20;9.90;;;0.90;99.90;;;;;;5075902;28;20219;-81
2021/12/25 16:46:52;;;;;;;10.37;10.07;;;0.90;99.90;;;;;;5079114;28;20206;-82
2021/12/25 16:49:24;;;;;;;10.07;9.77;;;0.90;99.90;;;;;;5078512;28;20235;-82
2021/12/25 16:51:53;;;;;;;10.30;10.00;;;1.00;99.90;;;;;;5077967;28;20285;-84
2021/12/25 16:54:21;;;;;;;10.20;9.90;;;1.00;99.90;;;;;;5070892;28;20288;-83
2021/12/25 16:56:49;;;;;;;10.23;9.93;;;0.90;99.90;;;;;;5063628;28;20223;-83
2021/12/25 16:59:19;;;;;;;10.30;10.00;;;0.90;99.90;;;;;;5047145;28;20293;-83
2021/12/25 17:01:49;;;;;;;10.30;10.00;;;0.90;99.90;;;;;;5048595;28;20304;-81
2021/12/25 17:04:17;;;;;;;10.40;10.10;;;0.80;99.90;;;;;;5046402;28;20239;-83
2021/12/25 17:06:45;;;;;;;10.50;10.20;;;0.80;99.90;;;;;;5051492;28;20227;-83
2021/12/25 17:09:13;;;;;;;10.07;9.77;;;0.80;99.90;;;;;;5053968;28;20290;-84
2021/12/25 17:11:41;;;;;;;9.97;9.67;;;1.00;99.90;;;;;;5046393;28;20235;-83
2021/12/25 17:14:09;;;;;;;10.10;9.80;;;1.20;99.90;;;;;;5042487;28;20235;-83
2021/12/25 17:16:37;;;;;;;10.23;9.93;;;1.10;99.90;;;;;;5059123;28;20231;-85
2021/12/25 17:19:07;;;;;;;10.30;10.00;;;1.00;99.90;;;;;;5060607;28;20231;-84
2021/12/25 17:21:35;;;;;;;10.13;9.83;;;1.00;99.90;;;;;;5061200;28;20227;-84
2021/12/25 17:24:03;;;;;;;10.30;10.00;;;0.90;99.90;;;;;;5060847;28;20231;-83
2021/12/25 17:26:31;;;;;;;10.20;9.90;;;0.80;99.90;;;;;;5060860;28;20282;-84
2021/12/25 17:28:59;;;;;;;9.90;9.60;;;0.70;99.90;;;;;;5061716;28;20289;-85
2021/12/25 17:31:27;;;;;;;10.23;9.93;;;0.60;99.90;;;;;;5042366;28;20281;-83
2021/12/25 17:33:55;;;;;;;10.20;9.90;;;0.60;99.90;;;;;;5061169;28;20238;-83
2021/12/25 17:36:24;;;;;;;9.97;9.67;;;0.60;99.90;;;;;;5062533;28;20231;-83
2021/12/25 17:38:55;;;;;;;10.07;9.77;;;0.60;99.90;;;;;;5066362;28;20239;-84
2021/12/25 17:41:33;;;;;;;9.80;9.50;;;0.60;99.90;;;;;;5063101;28;20245;-84
2021/12/25 17:44:02;;;;;;;10.20;9.90;;;0.60;99.90;;;;;;5058930;28;20238;-84
2021/12/25 17:46:29;;;;;;;10.10;9.80;;;0.60;99.90;;;;;;5037828;28;20223;-84
2021/12/25 17:48:57;;;;;;;10.10;9.80;;;0.60;99.90;;;;;;5068728;28;20230;-84